sensor_id;sensor_type;location;lat;lon;timestamp;P1;durP1;ratioP1;P2;durP2;ratioP2
72408;SDS011;60402;48.082;11.628;2023-07-16T00:00:40;5.43;;;2.95;;
72408;SDS011;60402;48.082;11.628;2023-07-16T00:03:26;6.78;;;3.40;;
72408;SDS011;60402;48.082;11.628;2023-07-16T00:06:12;6.82;;;2.95;;
72408;SDS011;60402;48.082;11.628;2023-07-16T00:08:58;6.28;;;3.10;;
72408;SDS011;60402;48.082;11.628;2023-07-16T00:11:45;6.40;;;3.30;;
72408;SDS011;60402;48.082;11.628;2023-07-16T00:14:30;6.47;;;3.30;;
72408;SDS011;60402;48.082;11.628;2023-07-16T00:17:16;8.05;;;3.40;;
72408;SDS011;60402;48.082;11.628;2023-07-16T00:20:02;5.90;;;3.10;;
72408;SDS011;60402;48.082;11.628;2023-07-16T00:22:50;9.60;;;3.03;;
72408;SDS011;60402;48.082;11.628;2023-07-16T00:25:36;7.28;;;3.38;;
72408;SDS011;60402;48.082;11.628;2023-07-16T00:28:22;5.90;;;3.30;;
72408;SDS011;60402;48.082;11.628;2023-07-16T00:31:07;8.30;;;3.10;;
72408;SDS011;60402;48.082;11.628;2023-07-16T00:33:53;6.13;;;2.90;;
72408;SDS011;60402;48.082;11.628;2023-07-16T00:36:39;6.68;;;3.20;;
72408;SDS011;60402;48.082;11.628;2023-07-16T00:39:24;8.02;;;3.10;;
72408;SDS011;60402;48.082;11.628;2023-07-16T00:42:10;6.82;;;3.22;;
72408;SDS011;60402;48.082;11.628;2023-07-16T00:44:56;6.05;;;2.97;;
72408;SDS011;60402;48.082;11.628;2023-07-16T00:47:41;7.15;;;3.08;;
72408;SDS011;60402;48.082;11.628;2023-07-16T00:50:29;7.07;;;3.70;;
72408;SDS011;60402;48.082;11.628;2023-07-16T00:53:19;6.57;;;2.88;;
72408;SDS011;60402;48.082;11.628;2023-07-16T00:56:05;6.70;;;2.90;;
72408;SDS011;60402;48.082;11.628;2023-07-16T00:58:52;7.45;;;3.78;;
72408;SDS011;60402;48.082;11.628;2023-07-16T01:01:38;6.20;;;3.33;;
72408;SDS011;60402;48.082;11.628;2023-07-16T01:04:24;7.28;;;3.17;;
72408;SDS011;60402;48.082;11.628;2023-07-16T01:07:11;7.13;;;3.20;;
72408;SDS011;60402;48.082;11.628;2023-07-16T01:09:59;8.13;;;3.53;;
72408;SDS011;60402;48.082;11.628;2023-07-16T01:12:45;6.38;;;3.47;;
72408;SDS011;60402;48.082;11.628;2023-07-16T01:15:31;6.75;;;3.53;;
72408;SDS011;60402;48.082;11.628;2023-07-16T01:18:17;7.10;;;3.90;;
72408;SDS011;60402;48.082;11.628;2023-07-16T01:21:03;7.25;;;4.35;;
72408;SDS011;60402;48.082;11.628;2023-07-16T01:29:45;7.35;;;3.40;;
72408;SDS011;60402;48.082;11.628;2023-07-16T01:32:37;7.75;;;3.70;;
72408;SDS011;60402;48.082;11.628;2023-07-16T01:35:23;6.95;;;3.85;;
72408;SDS011;60402;48.082;11.628;2023-07-16T01:38:09;11.13;;;3.85;;
72408;SDS011;60402;48.082;11.628;2023-07-16T01:40:56;7.30;;;3.63;;
72408;SDS011;60402;48.082;11.628;2023-07-16T01:43:42;6.95;;;3.47;;
72408;SDS011;60402;48.082;11.628;2023-07-16T01:46:27;9.35;;;3.85;;
72408;SDS011;60402;48.082;11.628;2023-07-16T01:49:14;9.13;;;3.70;;
72408;SDS011;60402;48.082;11.628;2023-07-16T01:52:03;7.78;;;3.60;;
72408;SDS011;60402;48.082;11.628;2023-07-16T01:54:50;6.22;;;3.58;;
72408;SDS011;60402;48.082;11.628;2023-07-16T01:57:35;6.63;;;3.53;;
72408;SDS011;60402;48.082;11.628;2023-07-16T02:00:21;7.75;;;4.03;;
72408;SDS011;60402;48.082;11.628;2023-07-16T02:03:07;7.68;;;3.63;;
72408;SDS011;60402;48.082;11.628;2023-07-16T02:05:52;10.77;;;4.22;;
72408;SDS011;60402;48.082;11.628;2023-07-16T02:08:38;7.25;;;3.70;;
72408;SDS011;60402;48.082;11.628;2023-07-16T02:11:24;6.38;;;3.50;;
72408;SDS011;60402;48.082;11.628;2023-07-16T02:14:09;8.43;;;3.72;;
72408;SDS011;60402;48.082;11.628;2023-07-16T02:16:55;9.15;;;4.00;;
72408;SDS011;60402;48.082;11.628;2023-07-16T02:19:41;7.20;;;4.05;;
72408;SDS011;60402;48.082;11.628;2023-07-16T02:22:26;7.60;;;3.53;;
72408;SDS011;60402;48.082;11.628;2023-07-16T02:25:12;9.23;;;4.32;;
72408;SDS011;60402;48.082;11.628;2023-07-16T02:27:57;8.00;;;3.80;;
72408;SDS011;60402;48.082;11.628;2023-07-16T02:30:43;7.82;;;3.58;;
72408;SDS011;60402;48.082;11.628;2023-07-16T02:33:29;7.50;;;4.13;;
72408;SDS011;60402;48.082;11.628;2023-07-16T02:36:14;6.53;;;3.60;;
72408;SDS011;60402;48.082;11.628;2023-07-16T02:39:00;7.78;;;3.67;;
72408;SDS011;60402;48.082;11.628;2023-07-16T02:41:46;8.25;;;3.80;;
72408;SDS011;60402;48.082;11.628;2023-07-16T02:44:31;8.07;;;4.00;;
72408;SDS011;60402;48.082;11.628;2023-07-16T02:47:17;7.85;;;3.40;;
72408;SDS011;60402;48.082;11.628;2023-07-16T02:50:03;7.60;;;4.28;;
72408;SDS011;60402;48.082;11.628;2023-07-16T02:52:49;8.88;;;4.35;;
72408;SDS011;60402;48.082;11.628;2023-07-16T02:55:35;6.75;;;3.78;;
72408;SDS011;60402;48.082;11.628;2023-07-16T02:58:20;9.20;;;3.85;;
72408;SDS011;60402;48.082;11.628;2023-07-16T03:01:06;9.82;;;4.13;;
72408;SDS011;60402;48.082;11.628;2023-07-16T03:03:52;7.40;;;3.85;;
72408;SDS011;60402;48.082;11.628;2023-07-16T03:06:37;8.77;;;3.92;;
72408;SDS011;60402;48.082;11.628;2023-07-16T03:09:23;6.70;;;3.72;;
72408;SDS011;60402;48.082;11.628;2023-07-16T03:12:09;8.98;;;3.88;;
72408;SDS011;60402;48.082;11.628;2023-07-16T03:14:54;6.47;;;3.60;;
72408;SDS011;60402;48.082;11.628;2023-07-16T03:17:40;8.77;;;4.10;;
72408;SDS011;60402;48.082;11.628;2023-07-16T03:20:26;6.75;;;3.75;;
72408;SDS011;60402;48.082;11.628;2023-07-16T03:23:11;6.40;;;3.47;;
72408;SDS011;60402;48.082;11.628;2023-07-16T03:25:57;6.40;;;3.70;;
72408;SDS011;60402;48.082;11.628;2023-07-16T03:28:43;5.65;;;3.28;;
72408;SDS011;60402;48.082;11.628;2023-07-16T03:31:28;7.00;;;3.45;;
72408;SDS011;60402;48.082;11.628;2023-07-16T03:34:14;6.70;;;3.40;;
72408;SDS011;60402;48.082;11.628;2023-07-16T03:36:59;6.55;;;3.42;;
72408;SDS011;60402;48.082;11.628;2023-07-16T03:39:45;6.38;;;3.30;;
72408;SDS011;60402;48.082;11.628;2023-07-16T03:42:31;5.70;;;2.70;;
72408;SDS011;60402;48.082;11.628;2023-07-16T03:45:16;5.25;;;2.60;;
72408;SDS011;60402;48.082;11.628;2023-07-16T03:48:02;6.18;;;2.30;;
72408;SDS011;60402;48.082;11.628;2023-07-16T03:50:48;4.95;;;2.33;;
72408;SDS011;60402;48.082;11.628;2023-07-16T03:53:33;4.57;;;2.08;;
72408;SDS011;60402;48.082;11.628;2023-07-16T03:56:19;6.45;;;2.28;;
72408;SDS011;60402;48.082;11.628;2023-07-16T03:59:05;4.43;;;2.00;;
72408;SDS011;60402;48.082;11.628;2023-07-16T04:01:50;3.70;;;1.85;;
72408;SDS011;60402;48.082;11.628;2023-07-16T04:04:36;4.57;;;1.80;;
72408;SDS011;60402;48.082;11.628;2023-07-16T04:07:22;4.40;;;1.90;;
72408;SDS011;60402;48.082;11.628;2023-07-16T04:10:07;5.00;;;1.90;;
72408;SDS011;60402;48.082;11.628;2023-07-16T04:12:53;4.47;;;2.10;;
72408;SDS011;60402;48.082;11.628;2023-07-16T04:15:39;3.85;;;2.00;;
72408;SDS011;60402;48.082;11.628;2023-07-16T04:18:25;4.40;;;2.10;;
72408;SDS011;60402;48.082;11.628;2023-07-16T04:21:10;3.75;;;1.85;;
72408;SDS011;60402;48.082;11.628;2023-07-16T04:23:56;4.82;;;1.85;;
72408;SDS011;60402;48.082;11.628;2023-07-16T04:26:42;3.67;;;1.92;;
72408;SDS011;60402;48.082;11.628;2023-07-16T04:29:27;4.85;;;2.00;;
72408;SDS011;60402;48.082;11.628;2023-07-16T04:32:13;6.10;;;2.67;;
72408;SDS011;60402;48.082;11.628;2023-07-16T04:34:58;5.55;;;2.15;;
72408;SDS011;60402;48.082;11.628;2023-07-16T04:37:44;7.07;;;1.98;;
72408;SDS011;60402;48.082;11.628;2023-07-16T04:40:30;5.63;;;1.92;;
72408;SDS011;60402;48.082;11.628;2023-07-16T04:43:15;6.10;;;2.08;;
72408;SDS011;60402;48.082;11.628;2023-07-16T04:46:01;4.50;;;1.80;;
72408;SDS011;60402;48.082;11.628;2023-07-16T04:48:47;6.15;;;2.20;;
72408;SDS011;60402;48.082;11.628;2023-07-16T04:51:33;5.10;;;2.00;;
72408;SDS011;60402;48.082;11.628;2023-07-16T04:54:18;4.97;;;1.80;;
72408;SDS011;60402;48.082;11.628;2023-07-16T04:57:05;3.75;;;1.60;;
72408;SDS011;60402;48.082;11.628;2023-07-16T04:59:53;4.85;;;1.40;;
72408;SDS011;60402;48.082;11.628;2023-07-16T05:02:38;3.92;;;2.50;;
72408;SDS011;60402;48.082;11.628;2023-07-16T05:05:24;3.35;;;1.42;;
72408;SDS011;60402;48.082;11.628;2023-07-16T05:08:10;3.78;;;1.40;;
72408;SDS011;60402;48.082;11.628;2023-07-16T05:10:55;3.30;;;1.30;;
72408;SDS011;60402;48.082;11.628;2023-07-16T05:13:41;4.65;;;1.50;;
72408;SDS011;60402;48.082;11.628;2023-07-16T05:16:26;4.47;;;1.48;;
72408;SDS011;60402;48.082;11.628;2023-07-16T05:19:12;4.78;;;1.73;;
72408;SDS011;60402;48.082;11.628;2023-07-16T05:21:58;3.35;;;1.30;;
72408;SDS011;60402;48.082;11.628;2023-07-16T05:24:44;5.03;;;1.33;;
72408;SDS011;60402;48.082;11.628;2023-07-16T05:27:30;3.03;;;1.42;;
72408;SDS011;60402;48.082;11.628;2023-07-16T05:30:15;2.75;;;1.20;;
72408;SDS011;60402;48.082;11.628;2023-07-16T05:33:01;2.88;;;1.30;;
72408;SDS011;60402;48.082;11.628;2023-07-16T05:35:48;1.92;;;1.08;;
72408;SDS011;60402;48.082;11.628;2023-07-16T05:38:35;2.35;;;1.30;;
72408;SDS011;60402;48.082;11.628;2023-07-16T05:41:21;2.60;;;1.08;;
72408;SDS011;60402;48.082;11.628;2023-07-16T05:44:06;3.17;;;1.27;;
72408;SDS011;60402;48.082;11.628;2023-07-16T05:46:53;2.83;;;1.30;;
72408;SDS011;60402;48.082;11.628;2023-07-16T05:49:39;3.42;;;1.10;;
72408;SDS011;60402;48.082;11.628;2023-07-16T05:52:25;2.25;;;1.10;;
72408;SDS011;60402;48.082;11.628;2023-07-16T05:55:11;2.83;;;1.10;;
72408;SDS011;60402;48.082;11.628;2023-07-16T05:57:57;2.78;;;1.10;;
72408;SDS011;60402;48.082;11.628;2023-07-16T06:00:42;2.20;;;1.13;;
72408;SDS011;60402;48.082;11.628;2023-07-16T06:03:28;5.65;;;1.90;;
72408;SDS011;60402;48.082;11.628;2023-07-16T06:06:13;3.13;;;0.98;;
72408;SDS011;60402;48.082;11.628;2023-07-16T06:08:59;3.97;;;1.20;;
72408;SDS011;60402;48.082;11.628;2023-07-16T06:11:48;2.50;;;0.98;;
72408;SDS011;60402;48.082;11.628;2023-07-16T06:14:33;2.85;;;1.10;;
72408;SDS011;60402;48.082;11.628;2023-07-16T06:17:19;1.98;;;0.90;;
72408;SDS011;60402;48.082;11.628;2023-07-16T06:20:05;3.83;;;1.02;;
72408;SDS011;60402;48.082;11.628;2023-07-16T06:22:52;2.92;;;1.13;;
72408;SDS011;60402;48.082;11.628;2023-07-16T06:25:38;3.20;;;1.20;;
72408;SDS011;60402;48.082;11.628;2023-07-16T06:31:11;3.38;;;1.27;;
72408;SDS011;60402;48.082;11.628;2023-07-16T06:33:56;2.97;;;1.30;;
72408;SDS011;60402;48.082;11.628;2023-07-16T06:36:42;2.92;;;1.38;;
72408;SDS011;60402;48.082;11.628;2023-07-16T06:39:28;3.15;;;1.30;;
72408;SDS011;60402;48.082;11.628;2023-07-16T06:42:13;2.17;;;1.30;;
72408;SDS011;60402;48.082;11.628;2023-07-16T06:44:59;3.78;;;1.45;;
72408;SDS011;60402;48.082;11.628;2023-07-16T06:47:45;3.03;;;1.45;;
72408;SDS011;60402;48.082;11.628;2023-07-16T06:50:30;3.13;;;1.50;;
72408;SDS011;60402;48.082;11.628;2023-07-16T06:53:16;4.63;;;1.45;;
72408;SDS011;60402;48.082;11.628;2023-07-16T06:56:02;3.03;;;1.50;;
72408;SDS011;60402;48.082;11.628;2023-07-16T06:58:47;4.53;;;2.08;;
72408;SDS011;60402;48.082;11.628;2023-07-16T07:01:33;3.60;;;1.52;;
72408;SDS011;60402;48.082;11.628;2023-07-16T07:04:19;3.90;;;1.83;;
72408;SDS011;60402;48.082;11.628;2023-07-16T07:07:04;4.78;;;1.73;;
72408;SDS011;60402;48.082;11.628;2023-07-16T07:09:50;3.05;;;1.50;;
72408;SDS011;60402;48.082;11.628;2023-07-16T07:12:36;4.10;;;1.60;;
72408;SDS011;60402;48.082;11.628;2023-07-16T07:15:22;3.40;;;1.70;;
72408;SDS011;60402;48.082;11.628;2023-07-16T07:18:08;4.28;;;1.90;;
72408;SDS011;60402;48.082;11.628;2023-07-16T07:20:54;7.88;;;1.80;;
72408;SDS011;60402;48.082;11.628;2023-07-16T07:23:39;3.45;;;1.80;;
72408;SDS011;60402;48.082;11.628;2023-07-16T07:26:25;4.65;;;1.50;;
72408;SDS011;60402;48.082;11.628;2023-07-16T07:29:11;3.83;;;1.30;;
72408;SDS011;60402;48.082;11.628;2023-07-16T07:31:56;4.10;;;1.60;;
72408;SDS011;60402;48.082;11.628;2023-07-16T07:34:42;2.33;;;1.30;;
72408;SDS011;60402;48.082;11.628;2023-07-16T07:37:28;2.42;;;1.30;;
72408;SDS011;60402;48.082;11.628;2023-07-16T07:40:13;2.97;;;1.33;;
72408;SDS011;60402;48.082;11.628;2023-07-16T07:42:59;2.60;;;1.20;;
72408;SDS011;60402;48.082;11.628;2023-07-16T07:45:45;3.28;;;1.30;;
72408;SDS011;60402;48.082;11.628;2023-07-16T07:48:31;2.53;;;1.40;;
72408;SDS011;60402;48.082;11.628;2023-07-16T07:51:17;2.55;;;1.35;;
72408;SDS011;60402;48.082;11.628;2023-07-16T07:54:02;2.83;;;1.20;;
72408;SDS011;60402;48.082;11.628;2023-07-16T07:56:48;3.22;;;1.42;;
72408;SDS011;60402;48.082;11.628;2023-07-16T07:59:34;4.05;;;1.45;;
72408;SDS011;60402;48.082;11.628;2023-07-16T08:02:19;2.95;;;1.38;;
72408;SDS011;60402;48.082;11.628;2023-07-16T08:05:08;2.30;;;1.20;;
72408;SDS011;60402;48.082;11.628;2023-07-16T08:07:54;3.60;;;1.48;;
72408;SDS011;60402;48.082;11.628;2023-07-16T08:10:41;2.40;;;1.40;;
72408;SDS011;60402;48.082;11.628;2023-07-16T08:13:28;3.30;;;1.40;;
72408;SDS011;60402;48.082;11.628;2023-07-16T08:16:13;3.15;;;1.48;;
72408;SDS011;60402;48.082;11.628;2023-07-16T08:18:59;2.78;;;1.35;;
72408;SDS011;60402;48.082;11.628;2023-07-16T08:21:44;2.55;;;1.30;;
72408;SDS011;60402;48.082;11.628;2023-07-16T08:24:30;3.25;;;1.20;;
72408;SDS011;60402;48.082;11.628;2023-07-16T08:27:16;4.05;;;1.38;;
72408;SDS011;60402;48.082;11.628;2023-07-16T08:30:02;2.53;;;1.23;;
72408;SDS011;60402;48.082;11.628;2023-07-16T08:32:47;2.90;;;1.40;;
72408;SDS011;60402;48.082;11.628;2023-07-16T08:35:33;2.10;;;1.05;;
72408;SDS011;60402;48.082;11.628;2023-07-16T08:38:19;2.53;;;1.20;;
72408;SDS011;60402;48.082;11.628;2023-07-16T08:41:05;2.42;;;1.10;;
72408;SDS011;60402;48.082;11.628;2023-07-16T08:43:51;2.58;;;1.00;;
72408;SDS011;60402;48.082;11.628;2023-07-16T08:46:37;2.55;;;1.05;;
72408;SDS011;60402;48.082;11.628;2023-07-16T08:49:24;2.55;;;1.08;;
72408;SDS011;60402;48.082;11.628;2023-07-16T08:52:10;1.73;;;0.90;;
72408;SDS011;60402;48.082;11.628;2023-07-16T08:54:57;2.80;;;1.05;;
72408;SDS011;60402;48.082;11.628;2023-07-16T08:57:43;1.70;;;1.00;;
72408;SDS011;60402;48.082;11.628;2023-07-16T09:00:29;2.42;;;1.00;;
72408;SDS011;60402;48.082;11.628;2023-07-16T09:03:15;2.08;;;1.02;;
72408;SDS011;60402;48.082;11.628;2023-07-16T09:06:04;2.33;;;0.82;;
72408;SDS011;60402;48.082;11.628;2023-07-16T09:08:49;3.28;;;1.10;;
72408;SDS011;60402;48.082;11.628;2023-07-16T09:11:35;3.25;;;1.00;;
72408;SDS011;60402;48.082;11.628;2023-07-16T09:14:21;3.42;;;1.05;;
72408;SDS011;60402;48.082;11.628;2023-07-16T09:17:07;1.27;;;0.77;;
72408;SDS011;60402;48.082;11.628;2023-07-16T09:19:52;2.00;;;0.88;;
72408;SDS011;60402;48.082;11.628;2023-07-16T09:22:38;1.95;;;0.80;;
72408;SDS011;60402;48.082;11.628;2023-07-16T09:25:30;2.22;;;1.00;;
72408;SDS011;60402;48.082;11.628;2023-07-16T09:28:18;2.65;;;0.98;;
72408;SDS011;60402;48.082;11.628;2023-07-16T09:31:04;1.30;;;0.80;;
72408;SDS011;60402;48.082;11.628;2023-07-16T09:33:53;2.83;;;0.77;;
72408;SDS011;60402;48.082;11.628;2023-07-16T09:36:42;2.47;;;0.90;;
72408;SDS011;60402;48.082;11.628;2023-07-16T09:39:28;2.53;;;0.77;;
72408;SDS011;60402;48.082;11.628;2023-07-16T09:42:14;1.55;;;0.80;;
72408;SDS011;60402;48.082;11.628;2023-07-16T09:45:02;1.98;;;1.00;;
72408;SDS011;60402;48.082;11.628;2023-07-16T09:47:47;3.28;;;1.00;;
72408;SDS011;60402;48.082;11.628;2023-07-16T09:50:34;1.60;;;1.00;;
72408;SDS011;60402;48.082;11.628;2023-07-16T09:53:21;2.20;;;1.00;;
72408;SDS011;60402;48.082;11.628;2023-07-16T09:56:06;3.05;;;1.02;;
72408;SDS011;60402;48.082;11.628;2023-07-16T09:58:55;2.80;;;0.90;;
72408;SDS011;60402;48.082;11.628;2023-07-16T10:01:43;1.95;;;1.00;;
72408;SDS011;60402;48.082;11.628;2023-07-16T10:04:37;2.20;;;0.90;;
72408;SDS011;60402;48.082;11.628;2023-07-16T10:07:25;1.85;;;1.00;;
72408;SDS011;60402;48.082;11.628;2023-07-16T10:10:12;1.73;;;0.90;;
72408;SDS011;60402;48.082;11.628;2023-07-16T10:13:00;3.72;;;1.20;;
72408;SDS011;60402;48.082;11.628;2023-07-16T10:15:50;2.20;;;1.10;;
72408;SDS011;60402;48.082;11.628;2023-07-16T10:18:38;2.50;;;0.90;;
72408;SDS011;60402;48.082;11.628;2023-07-16T10:21:24;2.67;;;0.95;;
72408;SDS011;60402;48.082;11.628;2023-07-16T10:24:16;2.65;;;1.02;;
72408;SDS011;60402;48.082;11.628;2023-07-16T10:27:03;2.78;;;1.00;;
72408;SDS011;60402;48.082;11.628;2023-07-16T10:29:50;2.95;;;1.00;;
72408;SDS011;60402;48.082;11.628;2023-07-16T10:32:35;3.05;;;1.10;;
72408;SDS011;60402;48.082;11.628;2023-07-16T10:35:21;2.47;;;0.90;;
72408;SDS011;60402;48.082;11.628;2023-07-16T10:38:07;3.03;;;1.10;;
72408;SDS011;60402;48.082;11.628;2023-07-16T10:40:52;2.17;;;1.08;;
72408;SDS011;60402;48.082;11.628;2023-07-16T10:43:38;2.28;;;0.88;;
72408;SDS011;60402;48.082;11.628;2023-07-16T10:46:25;2.08;;;1.13;;
72408;SDS011;60402;48.082;11.628;2023-07-16T10:49:11;2.28;;;0.90;;
72408;SDS011;60402;48.082;11.628;2023-07-16T10:51:58;2.70;;;1.10;;
72408;SDS011;60402;48.082;11.628;2023-07-16T10:54:46;2.58;;;1.02;;
72408;SDS011;60402;48.082;11.628;2023-07-16T10:57:31;2.13;;;1.02;;
72408;SDS011;60402;48.082;11.628;2023-07-16T11:00:17;2.90;;;1.25;;
72408;SDS011;60402;48.082;11.628;2023-07-16T11:03:03;2.28;;;1.20;;
72408;SDS011;60402;48.082;11.628;2023-07-16T11:05:49;2.13;;;1.17;;
72408;SDS011;60402;48.082;11.628;2023-07-16T11:08:34;2.47;;;1.20;;
72408;SDS011;60402;48.082;11.628;2023-07-16T11:11:29;2.35;;;1.13;;
72408;SDS011;60402;48.082;11.628;2023-07-16T11:14:15;2.03;;;1.10;;
72408;SDS011;60402;48.082;11.628;2023-07-16T11:17:05;1.92;;;1.20;;
72408;SDS011;60402;48.082;11.628;2023-07-16T11:19:54;2.05;;;1.00;;
72408;SDS011;60402;48.082;11.628;2023-07-16T11:22:40;3.08;;;1.40;;
72408;SDS011;60402;48.082;11.628;2023-07-16T11:25:26;3.22;;;1.40;;
72408;SDS011;60402;48.082;11.628;2023-07-16T11:28:12;3.47;;;1.50;;
72408;SDS011;60402;48.082;11.628;2023-07-16T11:30:58;2.72;;;1.20;;
72408;SDS011;60402;48.082;11.628;2023-07-16T11:33:46;1.98;;;1.02;;
72408;SDS011;60402;48.082;11.628;2023-07-16T11:36:32;3.00;;;1.13;;
72408;SDS011;60402;48.082;11.628;2023-07-16T11:39:18;2.33;;;1.20;;
72408;SDS011;60402;48.082;11.628;2023-07-16T11:42:05;2.70;;;1.13;;
72408;SDS011;60402;48.082;11.628;2023-07-16T11:44:51;3.42;;;1.20;;
72408;SDS011;60402;48.082;11.628;2023-07-16T11:47:37;3.35;;;1.45;;
72408;SDS011;60402;48.082;11.628;2023-07-16T11:50:22;2.85;;;1.30;;
72408;SDS011;60402;48.082;11.628;2023-07-16T11:53:08;2.58;;;1.20;;
72408;SDS011;60402;48.082;11.628;2023-07-16T11:55:56;3.80;;;1.33;;
72408;SDS011;60402;48.082;11.628;2023-07-16T11:58:42;3.45;;;1.30;;
72408;SDS011;60402;48.082;11.628;2023-07-16T12:01:28;3.33;;;1.20;;
72408;SDS011;60402;48.082;11.628;2023-07-16T12:04:14;3.05;;;1.30;;
72408;SDS011;60402;48.082;11.628;2023-07-16T12:07:00;3.70;;;1.40;;
72408;SDS011;60402;48.082;11.628;2023-07-16T12:09:46;2.92;;;1.27;;
72408;SDS011;60402;48.082;11.628;2023-07-16T12:12:32;2.50;;;1.42;;
72408;SDS011;60402;48.082;11.628;2023-07-16T12:15:18;3.45;;;1.63;;
72408;SDS011;60402;48.082;11.628;2023-07-16T12:18:03;4.75;;;1.80;;
72408;SDS011;60402;48.082;11.628;2023-07-16T12:20:49;3.65;;;1.50;;
72408;SDS011;60402;48.082;11.628;2023-07-16T12:23:35;3.55;;;1.77;;
72408;SDS011;60402;48.082;11.628;2023-07-16T12:26:20;2.97;;;1.50;;
72408;SDS011;60402;48.082;11.628;2023-07-16T12:29:06;3.20;;;1.65;;
72408;SDS011;60402;48.082;11.628;2023-07-16T12:31:52;2.70;;;1.50;;
72408;SDS011;60402;48.082;11.628;2023-07-16T12:34:37;3.50;;;1.58;;
72408;SDS011;60402;48.082;11.628;2023-07-16T12:37:23;2.92;;;1.50;;
72408;SDS011;60402;48.082;11.628;2023-07-16T12:40:09;3.72;;;1.48;;
72408;SDS011;60402;48.082;11.628;2023-07-16T12:42:54;3.20;;;1.35;;
72408;SDS011;60402;48.082;11.628;2023-07-16T12:45:40;3.00;;;1.33;;
72408;SDS011;60402;48.082;11.628;2023-07-16T12:48:26;3.20;;;1.50;;
72408;SDS011;60402;48.082;11.628;2023-07-16T12:51:11;3.50;;;1.40;;
72408;SDS011;60402;48.082;11.628;2023-07-16T12:53:57;3.92;;;1.55;;
72408;SDS011;60402;48.082;11.628;2023-07-16T12:56:42;3.55;;;1.60;;
72408;SDS011;60402;48.082;11.628;2023-07-16T12:59:28;3.38;;;1.52;;
72408;SDS011;60402;48.082;11.628;2023-07-16T13:02:14;3.33;;;1.60;;
72408;SDS011;60402;48.082;11.628;2023-07-16T13:04:59;3.75;;;1.33;;
72408;SDS011;60402;48.082;11.628;2023-07-16T13:07:45;3.30;;;1.63;;
72408;SDS011;60402;48.082;11.628;2023-07-16T13:10:31;3.40;;;1.40;;
72408;SDS011;60402;48.082;11.628;2023-07-16T13:13:16;5.35;;;1.67;;
72408;SDS011;60402;48.082;11.628;2023-07-16T13:16:02;5.38;;;1.67;;
72408;SDS011;60402;48.082;11.628;2023-07-16T13:18:48;3.20;;;1.50;;
72408;SDS011;60402;48.082;11.628;2023-07-16T13:21:33;3.25;;;1.63;;
72408;SDS011;60402;48.082;11.628;2023-07-16T13:24:19;2.78;;;1.48;;
72408;SDS011;60402;48.082;11.628;2023-07-16T13:27:05;2.70;;;1.48;;
72408;SDS011;60402;48.082;11.628;2023-07-16T13:29:50;2.75;;;1.40;;
72408;SDS011;60402;48.082;11.628;2023-07-16T13:32:36;2.38;;;1.33;;
72408;SDS011;60402;48.082;11.628;2023-07-16T13:35:22;3.35;;;1.60;;
72408;SDS011;60402;48.082;11.628;2023-07-16T13:38:08;2.78;;;1.23;;
72408;SDS011;60402;48.082;11.628;2023-07-16T13:40:53;3.53;;;1.80;;
72408;SDS011;60402;48.082;11.628;2023-07-16T13:43:39;4.25;;;1.63;;
72408;SDS011;60402;48.082;11.628;2023-07-16T13:46:25;3.78;;;1.67;;
72408;SDS011;60402;48.082;11.628;2023-07-16T13:49:10;3.47;;;1.55;;
72408;SDS011;60402;48.082;11.628;2023-07-16T13:51:56;4.75;;;1.80;;
72408;SDS011;60402;48.082;11.628;2023-07-16T13:54:42;4.03;;;1.90;;
72408;SDS011;60402;48.082;11.628;2023-07-16T13:57:27;2.50;;;1.42;;
72408;SDS011;60402;48.082;11.628;2023-07-16T14:00:13;3.22;;;1.60;;
72408;SDS011;60402;48.082;11.628;2023-07-16T14:03:01;2.92;;;1.42;;
72408;SDS011;60402;48.082;11.628;2023-07-16T14:05:47;4.10;;;1.67;;
72408;SDS011;60402;48.082;11.628;2023-07-16T14:08:32;3.00;;;1.58;;
72408;SDS011;60402;48.082;11.628;2023-07-16T14:11:20;3.53;;;1.63;;
72408;SDS011;60402;48.082;11.628;2023-07-16T14:14:07;3.75;;;1.95;;
72408;SDS011;60402;48.082;11.628;2023-07-16T14:16:53;3.67;;;1.60;;
72408;SDS011;60402;48.082;11.628;2023-07-16T14:19:38;4.25;;;1.95;;
72408;SDS011;60402;48.082;11.628;2023-07-16T14:22:24;3.63;;;1.83;;
72408;SDS011;60402;48.082;11.628;2023-07-16T14:25:12;4.57;;;1.75;;
72408;SDS011;60402;48.082;11.628;2023-07-16T14:27:58;3.63;;;1.80;;
72408;SDS011;60402;48.082;11.628;2023-07-16T14:30:44;3.47;;;1.60;;
72408;SDS011;60402;48.082;11.628;2023-07-16T14:33:29;3.60;;;1.50;;
72408;SDS011;60402;48.082;11.628;2023-07-16T14:36:15;3.40;;;1.80;;
72408;SDS011;60402;48.082;11.628;2023-07-16T14:39:02;2.75;;;1.50;;
72408;SDS011;60402;48.082;11.628;2023-07-16T14:41:47;3.30;;;1.65;;
72408;SDS011;60402;48.082;11.628;2023-07-16T14:44:33;5.55;;;2.00;;
72408;SDS011;60402;48.082;11.628;2023-07-16T14:47:19;2.88;;;1.58;;
72408;SDS011;60402;48.082;11.628;2023-07-16T14:50:04;5.43;;;1.73;;
72408;SDS011;60402;48.082;11.628;2023-07-16T14:52:50;4.22;;;1.92;;
72408;SDS011;60402;48.082;11.628;2023-07-16T14:55:36;6.18;;;1.90;;
72408;SDS011;60402;48.082;11.628;2023-07-16T14:58:22;6.45;;;1.80;;
72408;SDS011;60402;48.082;11.628;2023-07-16T15:01:08;3.47;;;1.60;;
72408;SDS011;60402;48.082;11.628;2023-07-16T15:03:54;3.08;;;1.60;;
72408;SDS011;60402;48.082;11.628;2023-07-16T15:06:40;4.95;;;1.83;;
72408;SDS011;60402;48.082;11.628;2023-07-16T15:09:25;5.25;;;1.80;;
72408;SDS011;60402;48.082;11.628;2023-07-16T15:12:11;3.80;;;1.70;;
72408;SDS011;60402;48.082;11.628;2023-07-16T15:14:56;3.95;;;1.90;;
72408;SDS011;60402;48.082;11.628;2023-07-16T15:17:42;3.05;;;1.60;;
72408;SDS011;60402;48.082;11.628;2023-07-16T15:20:28;4.50;;;1.80;;
72408;SDS011;60402;48.082;11.628;2023-07-16T15:23:13;3.63;;;2.03;;
72408;SDS011;60402;48.082;11.628;2023-07-16T15:26:03;6.18;;;2.00;;
72408;SDS011;60402;48.082;11.628;2023-07-16T15:28:56;3.05;;;1.60;;
72408;SDS011;60402;48.082;11.628;2023-07-16T15:31:42;3.95;;;1.77;;
72408;SDS011;60402;48.082;11.628;2023-07-16T15:34:28;4.18;;;1.70;;
72408;SDS011;60402;48.082;11.628;2023-07-16T15:37:13;3.55;;;1.65;;
72408;SDS011;60402;48.082;11.628;2023-07-16T15:39:59;4.80;;;1.60;;
72408;SDS011;60402;48.082;11.628;2023-07-16T15:42:57;3.42;;;1.77;;
72408;SDS011;60402;48.082;11.628;2023-07-16T15:45:43;4.13;;;2.00;;
72408;SDS011;60402;48.082;11.628;2023-07-16T15:48:28;3.53;;;1.80;;
72408;SDS011;60402;48.082;11.628;2023-07-16T15:51:14;3.90;;;1.90;;
72408;SDS011;60402;48.082;11.628;2023-07-16T15:54:00;3.17;;;1.83;;
72408;SDS011;60402;48.082;11.628;2023-07-16T15:56:46;4.20;;;1.80;;
72408;SDS011;60402;48.082;11.628;2023-07-16T15:59:31;4.03;;;1.88;;
72408;SDS011;60402;48.082;11.628;2023-07-16T16:02:17;3.67;;;1.77;;
72408;SDS011;60402;48.082;11.628;2023-07-16T16:05:03;5.00;;;1.85;;
72408;SDS011;60402;48.082;11.628;2023-07-16T16:08:10;5.18;;;1.90;;
72408;SDS011;60402;48.082;11.628;2023-07-16T16:10:59;3.00;;;1.58;;
72408;SDS011;60402;48.082;11.628;2023-07-16T16:13:44;4.45;;;1.80;;
72408;SDS011;60402;48.082;11.628;2023-07-16T16:16:30;4.07;;;1.83;;
72408;SDS011;60402;48.082;11.628;2023-07-16T16:19:18;3.78;;;1.85;;
72408;SDS011;60402;48.082;11.628;2023-07-16T16:22:04;4.13;;;1.80;;
72408;SDS011;60402;48.082;11.628;2023-07-16T16:24:50;2.33;;;1.30;;
72408;SDS011;60402;48.082;11.628;2023-07-16T16:27:35;4.80;;;1.92;;
72408;SDS011;60402;48.082;11.628;2023-07-16T16:30:21;4.13;;;2.00;;
72408;SDS011;60402;48.082;11.628;2023-07-16T16:33:07;4.10;;;1.80;;